Time;durP1;ratioP1;P1;durP2;ratioP2;P2;SDS_P1;SDS_P2;PMS_P1;PMS_P2;Temp;Humidity;BMP_temperature;BMP_pressure;BME280_temperature;BME280_humidity;BME280_pressure;Samples;Min_cycle;Max_cycle;Signal;HPM_P1;HPM_P2
2022/03/15 00:01:09;;;;;;;16.33;13.80;;;7.00;99.90;;;;;;5041399;28;20028;-72
2022/03/15 00:03:36;;;;;;;15.77;13.07;;;7.00;99.90;;;;;;5049791;28;20029;-71
2022/03/15 00:06:02;;;;;;;18.77;15.77;;;6.90;99.90;;;;;;5044135;28;20033;-73
2022/03/15 00:08:28;;;;;;;18.48;14.48;;;6.90;99.90;;;;;;5047055;28;20484;-71
2022/03/15 00:10:58;;;;;;;15.93;13.93;;;6.90;99.90;;;;;;5046848;28;20056;-72
2022/03/15 00:13:28;;;;;;;18.02;15.35;;;6.90;99.90;;;;;;5049363;28;20101;-71
2022/03/15 00:15:55;;;;;;;18.17;13.70;;;6.90;99.90;;;;;;5052070;28;20040;-70
2022/03/15 00:18:20;;;;;;;17.75;14.23;;;6.90;99.90;;;;;;5053579;28;20071;-70
2022/03/15 00:20:47;;;;;;;17.48;15.30;;;6.90;99.90;;;;;;5053196;28;20048;-71
2022/03/15 00:23:13;;;;;;;17.80;14.77;;;6.80;99.90;;;;;;5053753;28;20025;-72
2022/03/15 00:25:39;;;;;;;20.00;15.60;;;6.90;99.90;;;;;;5053240;28;20025;-72
2022/03/15 00:28:04;;;;;;;16.13;13.40;;;6.90;99.90;;;;;;5053469;28;20029;-72
2022/03/15 00:30:30;;;;;;;19.92;13.75;;;6.80;99.90;;;;;;5052572;28;20028;-71
2022/03/15 00:32:56;;;;;;;16.27;14.40;;;6.80;99.90;;;;;;5044065;28;20022;-72
2022/03/15 00:35:24;;;;;;;21.73;15.52;;;6.80;99.90;;;;;;5046905;28;20428;-71
2022/03/15 00:37:52;;;;;;;15.43;13.20;;;6.70;99.90;;;;;;5052992;28;20483;-71
2022/03/15 00:40:19;;;;;;;17.05;14.45;;;6.70;99.90;;;;;;5053902;28;20506;-71
2022/03/15 00:42:50;;;;;;;18.15;14.50;;;6.70;99.90;;;;;;5053955;28;20021;-72
2022/03/15 00:45:17;;;;;;;19.67;15.18;;;6.70;99.90;;;;;;5052071;28;20433;-71
2022/03/15 00:47:43;;;;;;;19.67;15.65;;;6.70;99.90;;;;;;5052190;28;20024;-71
2022/03/15 00:50:10;;;;;;;21.70;16.33;;;6.80;99.90;;;;;;5046173;28;20062;-73
2022/03/15 00:52:36;;;;;;;22.90;16.48;;;6.80;99.90;;;;;;5044236;28;20025;-71
2022/03/15 00:55:03;;;;;;;26.50;16.23;;;6.70;99.90;;;;;;5050342;28;20462;-72
2022/03/15 00:57:29;;;;;;;20.25;14.85;;;6.70;99.90;;;;;;5053149;28;20029;-71
2022/03/15 00:59:55;;;;;;;20.40;16.05;;;6.70;99.90;;;;;;5052955;28;20110;-70
2022/03/15 01:02:21;;;;;;;17.90;15.02;;;6.70;99.90;;;;;;5052773;28;20029;-72
2022/03/15 01:04:46;;;;;;;24.08;15.13;;;6.60;99.90;;;;;;5051538;28;20109;-72
2022/03/15 01:07:12;;;;;;;16.55;14.75;;;6.60;99.90;;;;;;5053169;28;20104;-71
2022/03/15 01:09:41;;;;;;;17.33;13.80;;;6.50;99.90;;;;;;5051069;28;20116;-71
2022/03/15 01:12:08;;;;;;;15.50;13.10;;;6.50;99.90;;;;;;5045755;28;20032;-72
2022/03/15 01:14:35;;;;;;;20.17;13.15;;;6.40;99.90;;;;;;5046737;28;20032;-71
2022/03/15 01:17:02;;;;;;;19.38;14.85;;;6.40;99.90;;;;;;5047830;28;20071;-71
2022/03/15 01:19:28;;;;;;;17.05;13.55;;;6.40;99.90;;;;;;5052729;28;20040;-71
2022/03/15 01:21:55;;;;;;;18.77;14.75;;;6.40;99.90;;;;;;5052389;28;20419;-71
2022/03/15 01:24:21;;;;;;;19.92;13.32;;;6.40;99.90;;;;;;5045796;28;20048;-72
2022/03/15 01:26:47;;;;;;;17.23;13.98;;;6.40;99.90;;;;;;5041735;28;20452;-72
2022/03/15 01:29:13;;;;;;;14.43;13.00;;;6.40;99.90;;;;;;5048322;28;20214;-71
2022/03/15 01:31:39;;;;;;;15.85;12.88;;;6.40;99.90;;;;;;5040756;28;20143;-72
2022/03/15 01:34:05;;;;;;;15.18;13.35;;;6.40;99.90;;;;;;5040837;28;20028;-72
2022/03/15 01:36:31;;;;;;;16.90;14.15;;;6.30;99.90;;;;;;5040907;28;20030;-72
2022/03/15 01:38:57;;;;;;;16.08;13.80;;;6.30;99.90;;;;;;5044555;28;20025;-71
2022/03/15 01:41:23;;;;;;;16.40;12.57;;;6.30;99.90;;;;;;5042571;28;20578;-72
2022/03/15 01:43:49;;;;;;;14.25;12.07;;;6.40;99.90;;;;;;5042374;28;20086;-72
2022/03/15 01:46:18;;;;;;;15.07;13.00;;;6.40;99.90;;;;;;5039696;28;20040;-72
2022/03/15 01:48:44;;;;;;;14.35;12.85;;;6.30;99.90;;;;;;5042223;28;20021;-72
2022/03/15 01:51:16;;;;;;;17.92;13.38;;;6.20;99.90;;;;;;5039932;28;20462;-72
2022/03/15 01:53:42;;;;;;;18.35;13.45;;;6.30;99.90;;;;;;5041192;28;20468;-73
2022/03/15 01:56:08;;;;;;;18.42;13.27;;;6.30;99.90;;;;;;5049686;28;20032;-73
2022/03/15 01:58:33;;;;;;;15.02;12.48;;;6.30;99.90;;;;;;5051335;28;20021;-72
2022/03/15 02:01:00;;;;;;;17.40;12.65;;;6.30;99.90;;;;;;5042474;28;20032;-71
2022/03/15 02:03:26;;;;;;;14.90;12.68;;;6.30;99.90;;;;;;5041060;28;20060;-74
2022/03/15 02:05:51;;;;;;;13.60;12.18;;;6.30;99.90;;;;;;5042122;28;20032;-71
2022/03/15 02:08:17;;;;;;;15.75;12.85;;;6.30;99.90;;;;;;5047252;28;20028;-72
2022/03/15 02:10:43;;;;;;;15.20;13.57;;;6.20;99.90;;;;;;5039115;28;20471;-72
2022/03/15 02:13:10;;;;;;;14.65;12.48;;;6.20;99.90;;;;;;5042341;28;20033;-71
2022/03/15 02:15:37;;;;;;;20.40;11.48;;;6.20;99.90;;;;;;5042742;28;20071;-71
2022/03/15 02:18:04;;;;;;;13.93;12.45;;;6.20;99.90;;;;;;5037959;28;20363;-71
2022/03/15 02:20:31;;;;;;;15.60;12.07;;;6.10;99.90;;;;;;5040634;28;20470;-72
2022/03/15 02:22:57;;;;;;;16.13;13.13;;;6.00;99.90;;;;;;5048306;28;20496;-72
2022/03/15 02:25:24;;;;;;;16.27;13.20;;;6.00;99.90;;;;;;5043022;28;20044;-72
2022/03/15 02:27:51;;;;;;;16.73;12.95;;;5.90;99.90;;;;;;5039669;28;20044;-72
2022/03/15 02:30:17;;;;;;;13.90;12.35;;;6.00;99.90;;;;;;5040239;28;20028;-72
2022/03/15 02:32:44;;;;;;;16.70;13.57;;;5.90;99.90;;;;;;5039978;28;20061;-72
2022/03/15 02:35:10;;;;;;;23.50;13.13;;;5.90;99.90;;;;;;5047910;28;20123;-74
2022/03/15 02:37:36;;;;;;;19.98;14.23;;;5.90;99.90;;;;;;5053384;28;20060;-71
2022/03/15 02:40:02;;;;;;;14.88;13.20;;;6.10;99.90;;;;;;5054496;28;20051;-72
2022/03/15 02:42:28;;;;;;;24.23;13.38;;;6.00;99.90;;;;;;5054150;28;20024;-72
2022/03/15 02:44:53;;;;;;;20.55;12.95;;;5.90;99.90;;;;;;5041839;28;20025;-71
2022/03/15 02:47:19;;;;;;;14.57;12.35;;;6.00;99.90;;;;;;5043803;28;20021;-71
2022/03/15 02:49:45;;;;;;;15.18;13.55;;;5.90;99.90;;;;;;5036203;28;20112;-72
2022/03/15 02:52:10;;;;;;;16.80;12.55;;;5.90;99.90;;;;;;5050568;28;20067;-72
2022/03/15 02:54:41;;;;;;;13.75;12.35;;;5.90;99.90;;;;;;5049558;28;20363;-72
2022/03/15 02:57:10;;;;;;;15.85;13.90;;;5.90;99.90;;;;;;5052026;28;20013;-72
2022/03/15 02:59:37;;;;;;;14.38;11.15;;;5.90;99.90;;;;;;5051153;28;20029;-72
2022/03/15 03:02:03;;;;;;;17.17;11.75;;;5.90;99.90;;;;;;5051422;28;20090;-72
2022/03/15 03:04:29;;;;;;;14.55;13.02;;;5.80;99.90;;;;;;5051434;28;20029;-72
2022/03/15 03:06:55;;;;;;;14.15;12.48;;;5.80;99.90;;;;;;5052872;28;20028;-71
2022/03/15 03:09:20;;;;;;;14.27;12.32;;;5.80;99.90;;;;;;5052192;28;20043;-71
2022/03/15 03:11:46;;;;;;;17.75;12.70;;;5.80;99.90;;;;;;5053651;28;20033;-73
2022/03/15 03:14:16;;;;;;;17.00;11.82;;;5.80;99.90;;;;;;5052363;28;20025;-71
2022/03/15 03:16:42;;;;;;;15.13;13.10;;;5.80;99.90;;;;;;5052021;28;20025;-71
2022/03/15 03:19:08;;;;;;;15.48;13.55;;;5.80;99.90;;;;;;5054572;28;20551;-72
2022/03/15 03:21:38;;;;;;;16.52;11.65;;;5.70;99.90;;;;;;5053043;28;20036;-72
2022/03/15 03:24:08;;;;;;;16.75;11.95;;;5.70;99.90;;;;;;5038682;28;20033;-72
2022/03/15 03:26:37;;;;;;;15.95;12.80;;;5.80;99.90;;;;;;5057673;28;20135;-72
2022/03/15 03:29:09;;;;;;;14.70;13.10;;;5.80;99.90;;;;;;5037588;28;20056;-72
2022/03/15 03:31:37;;;;;;;13.38;12.00;;;5.80;99.90;;;;;;5052153;28;20131;-72
2022/03/15 03:34:04;;;;;;;15.43;12.32;;;5.80;99.90;;;;;;5051720;28;20041;-72
2022/03/15 03:36:31;;;;;;;17.45;11.80;;;5.80;99.90;;;;;;5050574;28;20025;-72
2022/03/15 03:38:57;;;;;;;16.98;13.00;;;5.90;99.90;;;;;;5048948;28;20054;-71
2022/03/15 03:41:24;;;;;;;19.60;15.23;;;5.90;99.90;;;;;;5050470;28;20072;-72
2022/03/15 03:43:50;;;;;;;14.02;11.23;;;5.90;99.90;;;;;;5065552;28;20036;-72
2022/03/15 03:46:17;;;;;;;19.02;12.50;;;6.00;99.90;;;;;;5050123;28;20075;-72
2022/03/15 03:48:44;;;;;;;12.25;11.05;;;6.00;99.90;;;;;;5051844;28;20032;-72
2022/03/15 03:51:12;;;;;;;15.63;11.57;;;6.00;99.90;;;;;;5048888;28;20499;-70
2022/03/15 03:53:38;;;;;;;14.95;11.57;;;6.10;99.90;;;;;;5048904;28;20033;-72
2022/03/15 03:56:04;;;;;;;15.23;12.10;;;6.10;99.90;;;;;;5048968;28;20031;-71
2022/03/15 03:58:30;;;;;;;12.27;9.70;;;6.10;99.90;;;;;;5050634;28;20037;-71
2022/03/15 04:00:55;;;;;;;15.13;10.30;;;6.00;99.90;;;;;;5050136;28;20025;-72
2022/03/15 04:03:24;;;;;;;14.15;10.50;;;6.00;99.90;;;;;;5049127;28;20078;-71
2022/03/15 04:05:51;;;;;;;15.65;11.70;;;6.00;99.90;;;;;;5049318;28;20040;-71
2022/03/15 04:08:17;;;;;;;17.02;12.38;;;6.00;99.90;;;;;;5050747;28;20495;-71
2022/03/15 04:10:46;;;;;;;12.35;11.02;;;5.90;99.90;;;;;;5052353;28;20032;-71
2022/03/15 04:13:17;;;;;;;15.18;11.88;;;6.00;99.90;;;;;;5058069;28;20083;-71
2022/03/15 04:15:44;;;;;;;14.77;12.23;;;6.00;99.90;;;;;;5061771;28;20049;-73
2022/03/15 04:18:10;;;;;;;14.02;12.60;;;6.00;99.90;;;;;;5054767;28;20045;-72
2022/03/15 04:20:36;;;;;;;15.88;12.88;;;6.10;99.90;;;;;;5052334;28;20032;-72
2022/03/15 04:23:02;;;;;;;14.48;12.43;;;6.20;99.90;;;;;;5049318;28;20097;-72
2022/03/15 04:25:28;;;;;;;21.83;12.55;;;6.20;99.90;;;;;;5050139;28;20021;-72
2022/03/15 04:27:56;;;;;;;12.68;11.50;;;6.20;99.90;;;;;;5051487;28;20025;-71
2022/03/15 04:30:24;;;;;;;15.25;12.65;;;6.20;99.90;;;;;;5052216;28;20110;-72
2022/03/15 04:32:53;;;;;;;16.42;11.43;;;6.30;99.90;;;;;;5058443;28;20090;-76
2022/03/15 04:35:19;;;;;;;14.43;12.32;;;6.30;99.90;;;;;;5052677;28;20029;-71
2022/03/15 04:37:45;;;;;;;15.48;12.43;;;6.20;99.90;;;;;;5053534;28;20144;-71
2022/03/15 04:40:12;;;;;;;13.88;12.10;;;6.20;99.90;;;;;;5053134;28;20067;-71
2022/03/15 04:42:38;;;;;;;16.13;13.52;;;6.20;99.90;;;;;;5053209;28;20039;-72
2022/03/15 04:45:05;;;;;;;16.23;12.40;;;6.10;99.90;;;;;;5052791;28;20029;-72
2022/03/15 04:47:32;;;;;;;15.48;13.73;;;6.20;99.90;;;;;;5052430;28;20032;-72
2022/03/15 04:49:59;;;;;;;14.85;12.23;;;6.20;99.90;;;;;;5056880;28;20025;-71
2022/03/15 04:52:29;;;;;;;15.52;11.50;;;6.20;99.90;;;;;;5077853;28;20177;-73
2022/03/15 04:54:58;;;;;;;14.60;12.95;;;6.20;99.90;;;;;;5070890;28;20032;-73
2022/03/15 04:57:24;;;;;;;17.58;13.13;;;6.20;99.90;;;;;;5059006;28;20056;-71
2022/03/15 04:59:50;;;;;;;21.63;12.73;;;6.20;99.90;;;;;;5059059;28;20040;-73
2022/03/15 05:02:16;;;;;;;17.20;13.93;;;6.20;99.90;;;;;;5059837;28;20025;-72
2022/03/15 05:04:43;;;;;;;13.50;12.18;;;6.10;99.90;;;;;;5059767;28;20024;-73
2022/03/15 05:07:08;;;;;;;16.20;12.40;;;6.10;99.90;;;;;;5059400;28;20479;-72
2022/03/15 05:09:34;;;;;;;14.55;12.48;;;6.00;99.90;;;;;;5058947;28;20021;-72
2022/03/15 05:12:00;;;;;;;16.05;11.70;;;6.00;99.90;;;;;;5055182;28;20047;-73
2022/03/15 05:14:25;;;;;;;12.82;11.57;;;6.00;99.90;;;;;;5055429;28;20271;-72
2022/03/15 05:16:51;;;;;;;16.52;13.07;;;6.00;99.90;;;;;;5055354;28;20047;-73
2022/03/15 05:19:17;;;;;;;15.10;12.98;;;6.00;99.90;;;;;;5055232;28;20067;-71
2022/03/15 05:21:43;;;;;;;23.15;14.75;;;6.00;99.90;;;;;;5057779;28;20040;-72
2022/03/15 05:24:08;;;;;;;16.50;14.70;;;5.90;99.90;;;;;;5056120;28;20029;-74
2022/03/15 05:26:34;;;;;;;18.20;13.52;;;5.90;99.90;;;;;;5052744;28;20021;-72
2022/03/15 05:29:00;;;;;;;18.55;13.60;;;6.00;99.90;;;;;;5053045;28;20092;-72
2022/03/15 05:31:27;;;;;;;14.65;12.75;;;6.00;99.90;;;;;;5064393;28;20021;-71
2022/03/15 05:33:53;;;;;;;26.08;13.95;;;6.10;99.90;;;;;;5067146;28;20040;-71
2022/03/15 05:36:19;;;;;;;15.43;12.77;;;6.00;99.90;;;;;;5060432;28;20074;-71
2022/03/15 05:38:45;;;;;;;18.60;13.35;;;6.10;99.90;;;;;;5054299;28;20025;-74
2022/03/15 05:41:11;;;;;;;19.08;13.52;;;6.00;99.90;;;;;;5057077;28;20025;-72
2022/03/15 05:43:38;;;;;;;16.65;13.10;;;6.10;99.90;;;;;;5060199;28;20036;-73
2022/03/15 05:46:05;;;;;;;15.30;12.73;;;6.10;99.90;;;;;;5060390;28;20025;-73
2022/03/15 05:48:32;;;;;;;16.63;13.32;;;6.10;99.90;;;;;;5058215;28;20013;-72
2022/03/15 05:50:58;;;;;;;17.30;13.38;;;6.20;99.90;;;;;;5057636;28;20029;-74
2022/03/15 05:53:24;;;;;;;18.70;14.15;;;6.20;99.90;;;;;;5054356;28;20048;-72
2022/03/15 05:55:50;;;;;;;15.20;13.63;;;6.20;99.90;;;;;;5052567;28;20025;-72
2022/03/15 05:58:16;;;;;;;18.38;14.27;;;6.20;99.90;;;;;;5056019;28;20295;-71
2022/03/15 06:00:42;;;;;;;16.48;12.88;;;6.30;99.90;;;;;;5066441;28;20009;-72
2022/03/15 06:03:11;;;;;;;20.17;13.90;;;6.30;99.90;;;;;;5070553;28;20039;-72
2022/03/15 06:05:38;;;;;;;17.38;12.93;;;6.30;99.90;;;;;;5068799;28;20013;-72
2022/03/15 06:08:04;;;;;;;16.60;14.75;;;6.30;99.90;;;;;;5068391;28;20021;-71
2022/03/15 06:10:30;;;;;;;21.90;13.13;;;6.40;99.90;;;;;;5073687;28;20115;-71
2022/03/15 06:12:57;;;;;;;16.48;14.30;;;6.30;99.90;;;;;;5065677;28;20033;-72
2022/03/15 06:15:23;;;;;;;18.30;15.82;;;6.50;99.90;;;;;;5059820;28;20024;-72
2022/03/15 06:17:52;;;;;;;16.13;13.32;;;6.60;99.90;;;;;;5064418;28;20033;-70
2022/03/15 06:20:18;;;;;;;21.23;14.65;;;6.60;99.90;;;;;;5059552;28;20085;-72
2022/03/15 06:22:46;;;;;;;20.05;15.18;;;6.60;99.90;;;;;;5051810;28;20140;-71
2022/03/15 06:25:12;;;;;;;17.52;14.38;;;6.80;99.90;;;;;;5053078;28;20020;-71
2022/03/15 06:27:38;;;;;;;15.75;12.93;;;6.90;99.90;;;;;;5052012;28;20043;-72
2022/03/15 06:30:06;;;;;;;18.00;15.30;;;6.90;99.90;;;;;;5052875;28;20021;-71
2022/03/15 06:32:32;;;;;;;17.23;13.02;;;7.00;99.90;;;;;;5058451;28;20471;-71
2022/03/15 06:34:59;;;;;;;15.15;13.55;;;7.00;99.90;;;;;;5059765;28;20040;-73
2022/03/15 06:37:28;;;;;;;16.40;13.30;;;7.10;99.90;;;;;;5068786;28;20055;-76
2022/03/15 06:39:55;;;;;;;16.85;13.73;;;7.20;99.90;;;;;;5062946;28;20080;-72
2022/03/15 06:42:22;;;;;;;19.23;14.15;;;7.20;99.90;;;;;;5052246;28;20029;-74
2022/03/15 06:44:48;;;;;;;16.15;14.45;;;7.30;99.90;;;;;;5053164;28;20021;-72
2022/03/15 06:47:14;;;;;;;17.52;13.98;;;7.50;99.90;;;;;;5051779;28;20446;-73
2022/03/15 06:49:39;;;;;;;15.85;14.25;;;7.60;99.90;;;;;;5051356;28;20029;-72
2022/03/15 06:52:08;;;;;;;19.90;13.88;;;7.70;99.90;;;;;;5049889;28;20562;-73
2022/03/15 06:54:34;;;;;;;16.50;14.80;;;7.80;99.90;;;;;;5051770;28;20475;-72
2022/03/15 06:57:00;;;;;;;20.50;14.38;;;7.90;99.90;;;;;;5051728;28;20146;-72
2022/03/15 06:59:26;;;;;;;19.55;13.82;;;7.90;99.90;;;;;;5050866;28;20020;-72
2022/03/15 07:01:51;;;;;;;24.73;13.88;;;8.00;99.90;;;;;;5051462;28;20036;-74
2022/03/15 07:04:17;;;;;;;15.32;13.73;;;8.10;99.90;;;;;;5052139;28;20017;-71
2022/03/15 07:06:44;;;;;;;26.38;13.80;;;8.30;99.90;;;;;;5050777;28;20017;-73
2022/03/15 07:09:10;;;;;;;17.20;13.48;;;8.30;99.90;;;;;;5051195;28;20025;-72
2022/03/15 07:11:36;;;;;;;17.92;13.77;;;8.30;99.90;;;;;;5049169;28;20583;-73
2022/03/15 07:14:03;;;;;;;16.20;14.25;;;8.40;99.90;;;;;;5050054;28;20031;-71
2022/03/15 07:16:29;;;;;;;17.65;13.45;;;8.60;99.90;;;;;;5051114;28;20028;-73
2022/03/15 07:18:56;;;;;;;21.20;13.48;;;8.80;99.90;;;;;;5050579;28;20025;-74
2022/03/15 07:21:21;;;;;;;17.88;13.52;;;9.00;99.90;;;;;;5050922;28;20041;-72
2022/03/15 07:23:47;;;;;;;23.25;15.05;;;9.10;99.90;;;;;;5048902;28;20028;-72
2022/03/15 07:26:13;;;;;;;23.90;13.60;;;9.10;99.90;;;;;;5040778;28;20025;-72
2022/03/15 07:28:39;;;;;;;25.00;14.20;;;9.30;99.90;;;;;;5048901;28;20471;-72
2022/03/15 07:31:05;;;;;;;22.00;13.80;;;9.40;99.90;;;;;;5050450;28;20017;-71
2022/03/15 07:33:31;;;;;;;15.88;13.95;;;9.70;99.90;;;;;;5052694;28;20021;-71
2022/03/15 07:35:59;;;;;;;24.75;15.02;;;9.90;99.90;;;;;;5044583;28;20052;-72
2022/03/15 07:38:25;;;;;;;18.83;13.48;;;10.20;99.90;;;;;;5039241;28;20025;-73
2022/03/15 07:40:52;;;;;;;22.40;12.85;;;10.30;99.90;;;;;;5036287;28;20127;-71
2022/03/15 07:43:23;;;;;;;18.98;12.38;;;10.50;99.90;;;;;;5051085;28;20115;-72
2022/03/15 07:45:50;;;;;;;18.08;13.15;;;10.70;99.90;;;;;;5052827;28;20036;-72
2022/03/15 07:48:16;;;;;;;15.73;10.27;;;10.60;99.90;;;;;;5053034;28;20033;-72
2022/03/15 07:50:42;;;;;;;16.40;11.07;;;10.50;99.90;;;;;;5040172;28;20029;-71
2022/03/15 07:53:08;;;;;;;16.58;11.20;;;10.60;99.90;;;;;;5043599;28;20013;-74
2022/03/15 07:55:34;;;;;;;20.67;12.57;;;10.70;99.90;;;;;;5048875;28;20526;-71
2022/03/15 07:58:00;;;;;;;13.13;11.30;;;10.90;99.90;;;;;;5042170;28;20025;-73
2022/03/15 08:00:26;;;;;;;16.13;11.02;;;11.00;99.90;;;;;;5042015;28;20025;-73
2022/03/15 08:02:52;;;;;;;21.70;11.75;;;11.10;99.90;;;;;;5032751;28;20491;-71
2022/03/15 08:05:18;;;;;;;20.17;10.85;;;11.20;99.90;;;;;;5052864;28;20021;-72
2022/03/15 08:07:44;;;;;;;21.02;11.93;;;11.30;99.90;;;;;;5046149;28;20021;-71
2022/03/15 08:10:10;;;;;;;13.55;10.40;;;11.40;99.90;;;;;;5034791;28;20013;-72
2022/03/15 08:12:37;;;;;;;11.82;10.57;;;11.60;99.90;;;;;;5042074;28;20021;-72
2022/03/15 08:15:13;;;;;;;14.90;10.30;;;11.80;99.90;;;;;;5054192;28;20077;-72
2022/03/15 08:17:40;;;;;;;14.38;9.18;;;12.00;99.90;;;;;;5045146;28;20025;-73
2022/03/15 08:20:07;;;;;;;9.07;8.38;;;12.30;99.90;;;;;;5057622;28;20123;-73
2022/03/15 08:22:34;;;;;;;12.32;11.20;;;12.40;99.90;;;;;;5050591;28;20036;-70
2022/03/15 08:25:00;;;;;;;11.68;9.95;;;12.80;99.90;;;;;;5055983;28;20078;-67
2022/03/15 08:27:26;;;;;;;9.98;8.98;;;12.90;99.90;;;;;;5056064;28;20013;-68
2022/03/15 08:29:52;;;;;;;12.32;10.68;;;12.80;99.90;;;;;;5071345;28;20339;-68
2022/03/15 08:32:17;;;;;;;13.75;11.15;;;12.80;99.90;;;;;;5052909;28;20035;-69
2022/03/15 08:34:43;;;;;;;12.40;10.30;;;13.00;99.90;;;;;;5048961;28;20402;-69
2022/03/15 08:37:10;;;;;;;16.52;10.32;;;13.00;99.90;;;;;;5050358;28;20051;-70
2022/03/15 08:39:36;;;;;;;12.10;10.80;;;13.00;99.90;;;;;;5045028;28;20040;-68
2022/03/15 08:42:03;;;;;;;13.70;9.32;;;13.00;99.90;;;;;;5049182;28;20025;-68
2022/03/15 08:44:29;;;;;;;15.00;10.23;;;13.10;99.90;;;;;;5044295;28;20028;-68
2022/03/15 08:46:54;;;;;;;14.90;9.40;;;13.10;99.90;;;;;;5047862;28;20674;-68
2022/03/15 08:49:21;;;;;;;17.45;8.57;;;12.90;99.90;;;;;;5048448;28;20131;-70
2022/03/15 08:51:48;;;;;;;11.20;9.27;;;12.80;99.90;;;;;;5045404;28;20024;-69
2022/03/15 08:54:15;;;;;;;16.27;9.07;;;12.70;99.90;;;;;;5043409;28;20025;-68
2022/03/15 08:56:41;;;;;;;12.35;11.00;;;12.80;99.90;;;;;;5046520;28;20104;-69
2022/03/15 08:59:12;;;;;;;9.23;8.43;;;12.90;99.90;;;;;;5050726;28;20116;-68
2022/03/15 09:01:39;;;;;;;11.98;9.43;;;12.80;99.90;;;;;;5044503;28;20025;-68
2022/03/15 09:04:05;;;;;;;10.75;9.70;;;12.80;99.90;;;;;;5047514;28;20025;-70
2022/03/15 09:06:31;;;;;;;10.10;9.20;;;12.60;99.90;;;;;;5043406;28;20029;-67
2022/03/15 09:09:00;;;;;;;11.07;9.82;;;12.40;99.90;;;;;;5045965;28;20025;-66
2022/03/15 09:11:26;;;;;;;15.32;11.13;;;12.20;99.90;;;;;;5040346;28;20022;-66
2022/03/15 09:13:52;;;;;;;14.88;10.30;;;12.10;99.90;;;;;;5044507;28;20044;-68
2022/03/15 09:16:18;;;;;;;11.52;9.35;;;12.00;99.90;;;;;;5043749;28;20021;-68
2022/03/15 09:18:44;;;;;;;10.27;9.05;;;11.90;99.90;;;;;;5042320;28;20033;-71
2022/03/15 09:21:10;;;;;;;9.38;8.32;;;11.80;99.90;;;;;;5040990;28;20526;-67
2022/03/15 09:23:36;;;;;;;10.77;9.77;;;11.60;99.90;;;;;;5047400;28;20033;-67
2022/03/15 09:26:01;;;;;;;15.68;11.75;;;11.50;99.90;;;;;;5049360;28;20017;-67
2022/03/15 09:28:27;;;;;;;11.10;8.90;;;11.60;99.90;;;;;;5042507;28;20029;-67
2022/03/15 09:30:53;;;;;;;11.18;9.10;;;11.80;99.90;;;;;;5049323;28;20036;-66
2022/03/15 09:33:23;;;;;;;16.20;10.90;;;11.80;99.90;;;;;;5041450;28;20114;-66
2022/03/15 09:35:49;;;;;;;12.40;9.10;;;11.90;99.90;;;;;;5046485;28;20017;-68
2022/03/15 09:38:15;;;;;;;14.50;10.40;;;11.80;99.90;;;;;;5044246;28;20031;-67
2022/03/15 09:40:43;;;;;;;10.40;9.32;;;11.70;99.90;;;;;;5027180;28;20028;-67
2022/03/15 09:43:12;;;;;;;16.48;10.23;;;11.80;99.90;;;;;;5043367;28;20136;-67
2022/03/15 09:45:38;;;;;;;12.30;9.57;;;11.90;99.90;;;;;;5042978;28;20092;-67
2022/03/15 09:48:11;;;;;;;19.17;11.80;;;12.00;99.90;;;;;;5059479;28;20139;-67
2022/03/15 09:50:40;;;;;;;15.05;11.10;;;12.00;99.90;;;;;;5038300;28;20091;-66
2022/03/15 09:53:05;;;;;;;15.68;10.45;;;11.90;99.90;;;;;;5046416;28;20055;-68
2022/03/15 09:55:31;;;;;;;12.02;10.40;;;11.70;99.90;;;;;;5040782;28;20044;-68
2022/03/15 09:57:57;;;;;;;14.90;11.18;;;11.50;99.90;;;;;;5043537;28;20496;-68
2022/03/15 10:00:24;;;;;;;17.15;10.98;;;11.60;99.90;;;;;;5038167;28;20057;-68
2022/03/15 10:02:51;;;;;;;12.35;9.93;;;11.90;99.90;;;;;;5042142;28;20115;-69
2022/03/15 10:05:16;;;;;;;11.23;8.05;;;11.90;99.90;;;;;;5043723;28;20036;-68
2022/03/15 10:07:42;;;;;;;11.85;10.55;;;11.90;99.90;;;;;;5036204;28;20476;-68
2022/03/15 10:10:14;;;;;;;11.63;8.40;;;11.70;99.90;;;;;;5043200;28;20013;-67
2022/03/15 10:12:40;;;;;;;15.93;10.30;;;11.70;99.90;;;;;;5036785;28;20379;-68
2022/03/15 10:15:15;;;;;;;10.18;8.40;;;11.90;99.90;;;;;;5045126;28;20037;-69
2022/03/15 10:17:44;;;;;;;10.05;8.85;;;12.00;99.90;;;;;;5051215;28;20486;-72
2022/03/15 10:20:13;;;;;;;9.13;7.85;;;12.20;99.90;;;;;;5046002;28;20108;-68
2022/03/15 10:22:53;;;;;;;10.52;7.75;;;12.40;99.90;;;;;;5041695;28;20033;-69
2022/03/15 10:25:23;;;;;;;9.82;8.55;;;12.30;99.90;;;;;;5045236;28;20027;-68
2022/03/15 10:27:55;;;;;;;10.32;9.27;;;12.10;99.90;;;;;;5050083;28;20021;-68
2022/03/15 10:30:22;;;;;;;9.98;8.73;;;11.90;99.90;;;;;;5042853;28;20032;-67
2022/03/15 10:32:48;;;;;;;17.00;8.77;;;11.90;99.90;;;;;;5038694;28;20150;-67
2022/03/15 10:35:18;;;;;;;9.50;8.70;;;12.00;99.90;;;;;;5041834;28;20380;-68
2022/03/15 10:37:44;;;;;;;11.48;10.00;;;12.10;99.90;;;;;;5039639;28;20033;-67
2022/03/15 10:40:10;;;;;;;13.63;8.10;;;11.80;99.90;;;;;;5041214;28;20253;-68
2022/03/15 10:42:41;;;;;;;9.05;8.10;;;11.90;99.90;;;;;;5033280;28;20116;-67
2022/03/15 10:45:15;;;;;;;8.27;7.05;;;12.10;99.90;;;;;;5039597;28;20017;-69
2022/03/15 10:47:52;;;;;;;10.07;8.20;;;12.20;99.90;;;;;;5032916;28;20029;-67
2022/03/15 10:50:20;;;;;;;9.90;8.88;;;12.20;99.90;;;;;;5042634;28;20025;-68
2022/03/15 10:52:46;;;;;;;9.68;7.97;;;12.20;99.90;;;;;;5041216;28;20234;-68
2022/03/15 10:55:18;;;;;;;10.70;8.15;;;12.00;99.90;;;;;;5045510;28;20025;-66
2022/03/15 10:58:05;;;;;;;15.65;8.15;;;12.00;99.90;;;;;;5043973;28;20529;-66
2022/03/15 11:00:40;;;;;;;9.50;7.70;;;12.30;99.90;;;;;;5035292;28;20098;-68
2022/03/15 11:03:09;;;;;;;17.17;10.05;;;12.30;99.90;;;;;;5046720;28;20025;-66
2022/03/15 11:05:39;;;;;;;15.38;10.25;;;12.20;99.90;;;;;;5050242;28;20044;-67
2022/03/15 11:08:06;;;;;;;8.95;8.02;;;12.10;99.90;;;;;;5048984;28;20025;-68
2022/03/15 11:10:33;;;;;;;11.95;8.82;;;11.90;99.90;;;;;;5047371;28;20034;-68
2022/03/15 11:13:06;;;;;;;9.82;8.05;;;12.00;99.90;;;;;;5044092;28;20344;-68
2022/03/15 11:15:37;;;;;;;9.55;7.82;;;12.00;99.90;;;;;;5050458;28;20025;-68
2022/03/15 11:18:08;;;;;;;10.88;8.45;;;11.90;99.90;;;;;;5049331;28;20029;-68
2022/03/15 11:20:37;;;;;;;9.10;8.00;;;12.00;99.90;;;;;;5033676;28;20479;-67
2022/03/15 11:23:10;;;;;;;9.25;7.97;;;11.90;99.90;;;;;;5029890;28;20025;-67
2022/03/15 11:25:42;;;;;;;12.70;9.40;;;12.00;99.90;;;;;;5030292;28;20022;-68
2022/03/15 11:28:28;;;;;;;10.57;7.95;;;12.20;99.90;;;;;;5046095;28;20096;-67
2022/03/15 11:30:56;;;;;;;10.38;7.80;;;12.10;99.90;;;;;;5031971;28;20361;-68
2022/03/15 11:33:23;;;;;;;9.60;6.90;;;12.10;99.90;;;;;;5033907;28;20498;-68
2022/03/15 11:35:50;;;;;;;8.98;7.85;;;12.10;99.90;;;;;;5044946;28;20127;-67
2022/03/15 11:38:15;;;;;;;10.93;8.38;;;12.10;99.90;;;;;;5050730;28;20103;-67
2022/03/15 11:40:43;;;;;;;10.45;7.93;;;12.20;99.90;;;;;;5047732;28;20063;-67
2022/03/15 11:43:33;;;;;;;9.20;7.20;;;12.20;99.90;;;;;;5048946;28;20048;-67
2022/03/15 11:46:21;;;;;;;9.10;8.25;;;12.30;99.90;;;;;;5051721;28;20029;-68
2022/03/15 11:49:18;;;;;;;8.18;7.38;;;12.50;99.90;;;;;;5048610;28;20074;-68
2022/03/15 11:52:13;;;;;;;8.73;7.80;;;12.10;99.90;;;;;;5059863;28;20022;-68
2022/03/15 11:54:52;;;;;;;8.82;7.80;;;12.20;99.90;;;;;;5046617;28;20110;-67
2022/03/15 11:57:27;;;;;;;15.48;6.53;;;12.60;99.90;;;;;;5042387;28;20176;-67
2022/03/15 11:59:53;;;;;;;9.60;7.10;;;12.70;99.90;;;;;;5042568;28;20196;-69
2022/03/15 12:02:40;;;;;;;10.57;7.97;;;12.70;99.90;;;;;;5046663;28;20438;-69
2022/03/15 12:05:17;;;;;;;10.40;6.07;;;12.70;99.90;;;;;;5041365;28;20104;-70
2022/03/15 12:07:46;;;;;;;9.40;6.80;;;12.40;99.90;;;;;;5042372;28;20035;-69
2022/03/15 12:10:36;;;;;;;7.78;7.03;;;12.30;99.90;;;;;;5045359;28;20021;-68
2022/03/15 12:13:03;;;;;;;8.18;6.97;;;12.10;99.90;;;;;;5035515;28;20044;-69
2022/03/15 12:15:41;;;;;;;9.40;7.38;;;11.90;99.90;;;;;;5042075;28;20033;-69
2022/03/15 12:21:07;;;;;;;8.77;6.50;;;11.60;99.90;;;;;;5037900;28;20033;-68
2022/03/15 12:23:39;;;;;;;8.10;6.82;;;11.70;99.90;;;;;;5042217;28;20040;-68
2022/03/15 12:26:14;;;;;;;7.53;5.60;;;11.90;99.90;;;;;;5039399;28;20021;-68
2022/03/15 12:28:40;;;;;;;8.35;6.43;;;12.10;99.90;;;;;;5035484;28;20036;-67
2022/03/15 12:31:08;;;;;;;9.70;7.18;;;12.40;99.90;;;;;;5040756;28;20021;-67
2022/03/15 12:33:35;;;;;;;11.18;8.10;;;12.20;99.90;;;;;;5040363;28;20025;-68
2022/03/15 12:36:06;;;;;;;9.57;7.85;;;12.10;99.90;;;;;;5035679;28;20107;-68
2022/03/15 12:38:34;;;;;;;11.38;9.52;;;12.10;99.90;;;;;;5042085;28;20037;-68
2022/03/15 12:41:03;;;;;;;9.40;7.43;;;12.30;99.90;;;;;;5041196;28;20110;-68